Time;durP1;ratioP1;P1;durP2;ratioP2;P2;SDS_P1;SDS_P2;PMS_P1;PMS_P2;Temp;Humidity;BMP_temperature;BMP_pressure;BME280_temperature;BME280_humidity;BME280_pressure;Samples;Min_cycle;Max_cycle;Signal;HPM_P1;HPM_P2
2022/06/29 00:01:42;;;;;;;;;3.00;3.00;;;;;-147.17;100.00;59696.56;4992645;28;51035;-61
2022/06/29 00:04:08;;;;;;;;;4.33;4.33;;;;;-147.17;100.00;59696.56;4989508;28;51096;-60
2022/06/29 00:06:33;;;;;;;;;5.00;4.00;;;;;-147.17;100.00;59696.56;4992421;28;51797;-61
2022/06/29 00:08:58;;;;;;;;;5.00;5.00;;;;;-147.17;100.00;59696.56;4990025;28;51122;-61
2022/06/29 00:11:23;;;;;;;;;3.67;3.67;;;;;-147.17;100.00;59696.56;4991239;28;52367;-61
2022/06/29 00:13:49;;;;;;;;;3.33;3.33;;;;;-147.17;100.00;59696.56;4991816;28;51283;-61
2022/06/29 00:16:14;;;;;;;;;4.67;4.67;;;;;-147.17;100.00;59696.56;4990780;28;51534;-61
2022/06/29 00:18:39;;;;;;;;;7.00;5.00;;;;;-147.17;100.00;59696.56;4992744;28;51265;-60
2022/06/29 00:21:05;;;;;;;;;5.33;5.33;;;;;-147.17;100.00;59696.56;4989786;28;51209;-60
2022/06/29 00:23:30;;;;;;;;;6.00;6.00;;;;;-147.17;100.00;59696.56;4992655;28;51473;-60
2022/06/29 00:25:56;;;;;;;;;7.33;6.33;;;;;-147.17;100.00;59696.56;4989108;28;51999;-61
2022/06/29 00:28:23;;;;;;;;;4.00;4.00;;;;;-147.17;100.00;59696.56;4990548;28;51150;-60
2022/06/29 00:30:49;;;;;;;;;4.00;4.00;;;;;-147.17;100.00;59696.56;4992065;28;51063;-60
2022/06/29 00:33:14;;;;;;;;;5.33;5.00;;;;;-147.17;100.00;59696.56;4990912;28;51204;-60
2022/06/29 00:35:39;;;;;;;;;4.67;4.00;;;;;-147.17;100.00;59696.56;4992297;28;52253;-60
2022/06/29 00:38:05;;;;;;;;;5.33;5.00;;;;;-147.17;100.00;59696.56;4992950;28;51021;-60
2022/06/29 00:40:30;;;;;;;;;5.33;5.00;;;;;-147.17;100.00;59696.56;4992361;28;51071;-60
2022/06/29 00:42:55;;;;;;;;;5.67;5.00;;;;;-147.17;100.00;59696.56;4991807;28;51171;-61
2022/06/29 00:45:21;;;;;;;;;5.00;4.33;;;;;-147.17;100.00;59696.56;4992781;28;52794;-61
2022/06/29 00:47:46;;;;;;;;;4.00;4.00;;;;;-147.17;100.00;59696.56;4992403;28;50944;-60
2022/06/29 00:50:13;;;;;;;;;6.33;5.67;;;;;-147.17;100.00;59696.56;4991820;28;50957;-60
2022/06/29 00:52:42;;;;;;;;;5.00;5.00;;;;;-147.17;100.00;59696.56;4991362;28;51329;-61
2022/06/29 00:55:14;;;;;;;;;5.00;4.67;;;;;-147.17;100.00;59696.56;4986575;28;51215;-61
2022/06/29 00:57:44;;;;;;;;;5.67;5.67;;;;;-147.17;100.00;59696.56;4983153;28;51049;-61
2022/06/29 01:00:11;;;;;;;;;5.00;4.00;;;;;-147.17;100.00;59696.56;4989186;28;51138;-61
2022/06/29 01:02:36;;;;;;;;;6.00;5.00;;;;;-147.17;100.00;59696.56;4990132;28;51338;-61
2022/06/29 01:05:03;;;;;;;;;5.00;5.00;;;;;-147.17;100.00;59696.56;4985192;28;50881;-60
2022/06/29 01:07:32;;;;;;;;;6.00;5.00;;;;;-147.17;100.00;59696.56;4991581;28;51098;-60
2022/06/29 01:09:58;;;;;;;;;5.00;5.00;;;;;-147.17;100.00;59696.56;4990136;28;51216;-61
2022/06/29 01:12:24;;;;;;;;;5.00;5.00;;;;;-147.17;100.00;59696.56;4992654;28;51222;-62
2022/06/29 01:14:51;;;;;;;;;6.00;6.00;;;;;-147.17;100.00;59696.56;4991599;28;51705;-61
2022/06/29 01:17:18;;;;;;;;;6.00;6.00;;;;;-147.17;100.00;59696.56;4991485;28;52649;-62
2022/06/29 01:19:44;;;;;;;;;5.33;4.33;;;;;-147.17;100.00;59696.56;4981771;28;51111;-62
2022/06/29 01:22:11;;;;;;;;;6.33;5.33;;;;;-147.17;100.00;59696.56;4991420;28;51268;-62
2022/06/29 01:24:38;;;;;;;;;5.33;5.33;;;;;-147.17;100.00;59696.56;4992423;28;51185;-62
2022/06/29 01:27:04;;;;;;;;;5.00;5.00;;;;;-147.17;100.00;59696.56;4992228;28;51354;-62
2022/06/29 01:29:30;;;;;;;;;5.00;5.00;;;;;-147.17;100.00;59696.56;4991388;28;51230;-62
2022/06/29 01:31:56;;;;;;;;;6.00;6.00;;;;;-147.17;100.00;59696.56;4992128;28;51093;-62
2022/06/29 01:34:23;;;;;;;;;3.33;3.33;;;;;-147.17;100.00;59696.56;4991154;28;52924;-62
2022/06/29 01:36:48;;;;;;;;;4.00;4.00;;;;;-147.17;100.00;59696.56;4992943;28;51081;-61
2022/06/29 01:39:14;;;;;;;;;5.00;4.00;;;;;-147.17;100.00;59696.56;4991971;28;51061;-62
2022/06/29 01:41:39;;;;;;;;;5.00;5.00;;;;;-147.17;100.00;59696.56;4992771;28;51310;-61
2022/06/29 01:44:05;;;;;;;;;4.00;4.00;;;;;-147.17;100.00;59696.56;4991031;28;53202;-62
2022/06/29 01:46:30;;;;;;;;;4.00;4.00;;;;;-147.17;100.00;59696.56;5007703;28;51166;-61
2022/06/29 01:48:55;;;;;;;;;3.00;3.00;;;;;-147.17;100.00;59696.56;4988764;28;50969;-61
2022/06/29 01:51:21;;;;;;;;;4.00;3.00;;;;;-147.17;100.00;59696.56;4992368;28;51100;-61
2022/06/29 01:53:46;;;;;;;;;1.00;1.00;;;;;-147.17;100.00;59696.56;4990464;28;52828;-62
2022/06/29 01:56:12;;;;;;;;;3.67;3.33;;;;;-147.17;100.00;59696.56;4991924;28;51153;-62
2022/06/29 01:58:37;;;;;;;;;4.00;4.00;;;;;-147.17;100.00;59696.56;4990849;28;51521;-63
2022/06/29 02:01:02;;;;;;;;;2.33;2.33;;;;;-147.17;100.00;59696.56;4992245;28;51348;-63
2022/06/29 02:03:28;;;;;;;;;3.00;3.00;;;;;-147.17;100.00;59696.56;4991407;28;53847;-63
2022/06/29 02:05:53;;;;;;;;;2.00;2.00;;;;;-147.17;100.00;59696.56;4984732;28;51251;-63
2022/06/29 02:08:18;;;;;;;;;2.67;2.67;;;;;-147.17;100.00;59696.56;4992035;28;51150;-63
2022/06/29 02:10:44;;;;;;;;;3.00;3.00;;;;;-147.17;100.00;59696.56;4991172;28;51555;-63
2022/06/29 02:13:09;;;;;;;;;4.33;4.33;;;;;-147.17;100.00;59696.56;4992465;28;52683;-63
2022/06/29 02:15:34;;;;;;;;;3.00;3.00;;;;;-147.17;100.00;59696.56;4989620;28;51240;-63
2022/06/29 02:18:01;;;;;;;;;3.00;2.00;;;;;-147.17;100.00;59696.56;4992259;28;51175;-63
2022/06/29 02:20:26;;;;;;;;;5.33;3.00;;;;;-147.17;100.00;59696.56;4991689;28;51193;-62
2022/06/29 02:22:52;;;;;;;;;3.00;3.00;;;;;-147.17;100.00;59696.56;4991452;28;51914;-63
2022/06/29 02:25:17;;;;;;;;;3.67;3.00;;;;;-147.17;100.00;59696.56;4989354;28;51126;-63
2022/06/29 02:27:46;;;;;;;;;2.00;2.00;;;;;-147.17;100.00;59696.56;4991284;28;51171;-62
2022/06/29 02:30:16;;;;;;;;;3.00;3.00;;;;;-147.17;100.00;59696.56;4991387;28;51341;-62
2022/06/29 02:35:26;;;;;;;;;2.67;2.67;;;;;-147.17;100.00;59696.56;4988911;28;50849;-62
2022/06/29 02:37:52;;;;;;;;;3.33;3.33;;;;;-147.17;100.00;59696.56;4987931;28;50926;-63
2022/06/29 02:40:17;;;;;;;;;2.33;1.67;;;;;-147.17;100.00;59696.56;4986353;28;51164;-61
2022/06/29 02:42:42;;;;;;;;;2.67;2.33;;;;;-147.17;100.00;59696.56;4991508;28;54213;-61
2022/06/29 02:45:08;;;;;;;;;3.00;3.00;;;;;-147.17;100.00;59696.56;4968645;28;51267;-62
2022/06/29 02:47:33;;;;;;;;;3.33;3.33;;;;;-147.17;100.00;59696.56;4991495;28;51249;-61
2022/06/29 02:49:59;;;;;;;;;3.00;3.00;;;;;-147.17;100.00;59696.56;4981188;28;51361;-62
2022/06/29 02:52:24;;;;;;;;;3.00;2.67;;;;;-147.17;100.00;59696.56;4993131;28;52102;-62
2022/06/29 02:54:49;;;;;;;;;3.00;3.00;;;;;-147.17;100.00;59696.56;4994841;28;51063;-62
2022/06/29 02:57:14;;;;;;;;;2.67;2.33;;;;;-147.17;100.00;59696.56;4995186;28;51166;-61
2022/06/29 02:59:40;;;;;;;;;1.67;1.67;;;;;-147.17;100.00;59696.56;4982418;28;51251;-62
2022/06/29 03:02:05;;;;;;;;;2.67;2.67;;;;;-147.17;100.00;59696.56;4992756;28;52178;-62
2022/06/29 03:04:32;;;;;;;;;3.00;3.00;;;;;-147.17;100.00;59696.56;5007536;28;51300;-63
2022/06/29 03:06:58;;;;;;;;;3.00;3.00;;;;;-147.17;100.00;59696.56;4994257;28;52184;-63
2022/06/29 03:09:23;;;;;;;;;2.67;2.67;;;;;-147.17;100.00;59696.56;4993795;28;51153;-63
2022/06/29 03:11:48;;;;;;;;;3.33;2.67;;;;;-147.17;100.00;59696.56;4993827;28;52314;-64
2022/06/29 03:14:14;;;;;;;;;3.33;3.33;;;;;-147.17;100.00;59696.56;4994544;28;51040;-62
2022/06/29 03:16:39;;;;;;;;;3.67;3.33;;;;;-147.17;100.00;59696.56;4993472;28;52355;-63
2022/06/29 03:19:04;;;;;;;;;3.67;3.67;;;;;-147.17;100.00;59696.56;4982831;28;51116;-64
2022/06/29 03:21:30;;;;;;;;;3.33;3.33;;;;;-147.17;100.00;59696.56;4996222;28;52122;-63
2022/06/29 03:23:55;;;;;;;;;3.33;3.00;;;;;-147.17;100.00;59696.56;4994126;28;51261;-62
2022/06/29 03:26:20;;;;;;;;;3.00;3.00;;;;;-147.17;100.00;59696.56;5002341;28;51832;-62
2022/06/29 03:28:47;;;;;;;;;2.33;1.67;;;;;-147.17;100.00;59696.56;4994576;28;51377;-62
2022/06/29 03:31:13;;;;;;;;;5.00;4.33;;;;;-147.17;100.00;59696.56;5002596;28;52881;-63
2022/06/29 03:33:38;;;;;;;;;4.00;4.00;;;;;-147.17;100.00;59696.56;4991104;28;51125;-63
2022/06/29 03:36:04;;;;;;;;;3.33;3.00;;;;;-147.17;100.00;59696.56;4990864;28;51258;-62
2022/06/29 03:38:29;;;;;;;;;3.67;3.67;;;;;-147.17;100.00;59696.56;4986568;28;51300;-63
2022/06/29 03:40:54;;;;;;;;;4.00;4.00;;;;;-147.17;100.00;59696.56;4993144;28;51704;-63
2022/06/29 03:43:20;;;;;;;;;3.67;3.00;;;;;-147.17;100.00;59696.56;5007501;28;51715;-63
2022/06/29 03:45:45;;;;;;;;;2.33;2.33;;;;;-147.17;100.00;59696.56;5009400;28;51389;-63
2022/06/29 03:48:11;;;;;;;;;4.00;4.00;;;;;-147.17;100.00;59696.56;5000692;28;51408;-63
2022/06/29 03:50:36;;;;;;;;;3.67;3.67;;;;;-147.17;100.00;59696.56;4988543;28;51407;-62
2022/06/29 03:53:02;;;;;;;;;8.00;7.00;;;;;-147.17;100.00;59696.56;4993976;28;51151;-63
2022/06/29 03:55:27;;;;;;;;;5.67;3.67;;;;;-147.17;100.00;59696.56;4994086;28;51241;-63
2022/06/29 03:57:53;;;;;;;;;4.33;3.67;;;;;-147.17;100.00;59696.56;4995930;28;51136;-63
2022/06/29 04:00:19;;;;;;;;;3.67;3.67;;;;;-147.17;100.00;59696.56;4993081;28;52571;-63
2022/06/29 04:02:46;;;;;;;;;4.00;4.00;;;;;-147.17;100.00;59696.56;4999053;28;51210;-62
2022/06/29 04:05:11;;;;;;;;;6.00;5.33;;;;;-147.17;100.00;59696.56;4997977;28;51072;-64
2022/06/29 04:07:37;;;;;;;;;2.67;1.67;;;;;-147.17;100.00;59696.56;5016089;28;51292;-63
2022/06/29 04:10:03;;;;;;;;;5.00;4.67;;;;;-147.17;100.00;59696.56;4987395;28;51135;-63
2022/06/29 04:12:31;;;;;;;;;5.00;4.67;;;;;-147.17;100.00;59696.56;4992572;28;51084;-63
2022/06/29 04:14:57;;;;;;;;;5.67;5.00;;;;;-147.17;100.00;59696.56;4994388;28;51202;-63
2022/06/29 04:17:23;;;;;;;;;4.67;3.67;;;;;-147.17;100.00;59696.56;4994334;28;51058;-63
2022/06/29 04:19:51;;;;;;;;;5.67;5.67;;;;;-147.17;100.00;59696.56;4992626;28;51390;-63
2022/06/29 04:22:17;;;;;;;;;5.00;5.00;;;;;-147.17;100.00;59696.56;4992896;28;51134;-63
2022/06/29 04:24:42;;;;;;;;;5.67;5.67;;;;;-147.17;100.00;59696.56;4992938;28;51305;-63
2022/06/29 04:27:08;;;;;;;;;4.33;4.33;;;;;-147.17;100.00;59696.56;4994211;28;50948;-64
2022/06/29 04:29:35;;;;;;;;;3.33;3.00;;;;;-147.17;100.00;59696.56;4987230;28;53776;-64
2022/06/29 04:32:01;;;;;;;;;6.33;5.33;;;;;-147.17;100.00;59696.56;4992616;28;51096;-64
2022/06/29 04:34:26;;;;;;;;;6.00;6.00;;;;;-147.17;100.00;59696.56;5009197;28;51217;-61
2022/06/29 04:36:52;;;;;;;;;4.67;4.00;;;;;-147.17;100.00;59696.56;4993037;28;51038;-64
2022/06/29 04:39:17;;;;;;;;;6.33;6.00;;;;;-147.17;100.00;59696.56;4988632;28;52420;-63
2022/06/29 04:41:43;;;;;;;;;4.33;3.33;;;;;-147.17;100.00;59696.56;4993638;28;51100;-62
2022/06/29 04:44:08;;;;;;;;;4.00;4.00;;;;;-147.17;100.00;59696.56;4996653;28;51164;-63
2022/06/29 04:46:33;;;;;;;;;4.33;4.33;;;;;-147.17;100.00;59696.56;4991291;28;51097;-64
2022/06/29 04:49:01;;;;;;;;;5.00;5.00;;;;;-147.17;100.00;59696.56;4993609;28;51803;-63
2022/06/29 04:51:28;;;;;;;;;4.67;4.67;;;;;-147.17;100.00;59696.56;4996953;28;50961;-61
2022/06/29 04:53:55;;;;;;;;;5.00;4.67;;;;;-147.17;100.00;59696.56;4982284;28;51122;-63
2022/06/29 04:56:24;;;;;;;;;6.00;6.00;;;;;-147.17;100.00;59696.56;4994674;28;51440;-63
2022/06/29 04:58:51;;;;;;;;;5.00;4.67;;;;;-147.17;100.00;59696.56;4983940;28;51332;-64
2022/06/29 05:01:18;;;;;;;;;9.33;8.67;;;;;-147.17;100.00;59696.56;4989167;28;51154;-63
2022/06/29 05:03:43;;;;;;;;;5.67;5.67;;;;;-147.17;100.00;59696.56;4985174;28;51553;-63
2022/06/29 05:06:09;;;;;;;;;7.00;6.00;;;;;-147.17;100.00;59696.56;4995707;28;51125;-63
2022/06/29 05:08:35;;;;;;;;;6.00;6.00;;;;;-147.17;100.00;59696.56;5002310;28;51189;-64
2022/06/29 05:11:00;;;;;;;;;6.00;4.00;;;;;-147.17;100.00;59696.56;4992441;28;51356;-64
2022/06/29 05:13:26;;;;;;;;;5.00;5.00;;;;;-147.17;100.00;59696.56;5001733;28;51234;-63
2022/06/29 05:15:51;;;;;;;;;4.67;4.33;;;;;-147.17;100.00;59696.56;4995116;28;51064;-64
2022/06/29 05:18:16;;;;;;;;;5.33;5.00;;;;;-147.17;100.00;59696.56;4999985;28;52830;-63
2022/06/29 05:20:42;;;;;;;;;5.67;5.67;;;;;-147.17;100.00;59696.56;4993438;28;51294;-63
2022/06/29 05:23:09;;;;;;;;;8.00;7.00;;;;;-147.17;100.00;59696.56;4992932;28;51067;-62
2022/06/29 05:25:34;;;;;;;;;6.00;5.00;;;;;-147.17;100.00;59696.56;4998652;28;50948;-63
2022/06/29 05:28:00;;;;;;;;;7.33;6.00;;;;;-147.17;100.00;59696.56;4999517;28;51663;-65
2022/06/29 05:30:25;;;;;;;;;5.33;5.33;;;;;-147.17;100.00;59696.56;4991395;28;51185;-64
2022/06/29 05:32:51;;;;;;;;;5.00;5.00;;;;;-147.17;100.00;59696.56;4993480;28;51568;-64
2022/06/29 05:35:16;;;;;;;;;4.33;4.00;;;;;-147.17;100.00;59696.56;4985734;28;51174;-64
2022/06/29 05:37:42;;;;;;;;;6.00;6.00;;;;;-147.17;100.00;59696.56;4997945;28;51896;-63
2022/06/29 05:40:07;;;;;;;;;6.00;6.00;;;;;-147.17;100.00;59696.56;4994523;28;51122;-63
2022/06/29 05:42:34;;;;;;;;;5.00;5.00;;;;;-147.17;100.00;59696.56;4999689;28;51456;-62
2022/06/29 05:44:59;;;;;;;;;6.33;6.33;;;;;-147.17;100.00;59696.56;4975249;28;51429;-63
2022/06/29 05:47:25;;;;;;;;;3.67;3.67;;;;;-147.17;100.00;59696.56;4988102;28;51284;-63
2022/06/29 05:49:50;;;;;;;;;4.67;4.33;;;;;-147.17;100.00;59696.56;4991643;28;51028;-62
2022/06/29 05:52:15;;;;;;;;;4.33;3.33;;;;;-147.17;100.00;59696.56;5001311;28;51598;-63
2022/06/29 05:54:41;;;;;;;;;4.67;4.00;;;;;-147.17;100.00;59696.56;5005541;28;51158;-63
2022/06/29 05:57:06;;;;;;;;;3.33;3.33;;;;;-147.17;100.00;59696.56;4996987;28;52671;-63
2022/06/29 05:59:32;;;;;;;;;5.00;4.00;;;;;-147.17;100.00;59696.56;4991222;28;51122;-65
2022/06/29 06:01:58;;;;;;;;;3.00;3.00;;;;;-147.17;100.00;59696.56;4992708;28;51224;-63
2022/06/29 06:04:24;;;;;;;;;6.00;5.00;;;;;-147.17;100.00;59696.56;4991641;28;51178;-62
2022/06/29 06:06:49;;;;;;;;;2.33;2.00;;;;;-147.17;100.00;59696.56;4990143;28;51118;-63
2022/06/29 06:09:15;;;;;;;;;2.00;1.33;;;;;-147.17;100.00;59696.56;4997272;28;51547;-62
2022/06/29 06:11:40;;;;;;;;;1.33;1.33;;;;;-147.17;100.00;59696.56;4993847;28;51265;-64
2022/06/29 06:14:06;;;;;;;;;1.67;1.67;;;;;-147.17;100.00;59696.56;4984361;28;51437;-63
2022/06/29 06:16:32;;;;;;;;;1.00;1.00;;;;;-147.17;100.00;59696.56;4994573;28;52694;-62
2022/06/29 06:18:57;;;;;;;;;1.33;1.33;;;;;-147.17;100.00;59696.56;4990836;28;50961;-63
2022/06/29 06:21:23;;;;;;;;;4.00;2.67;;;;;-147.17;100.00;59696.56;4988126;28;51198;-62
2022/06/29 06:23:48;;;;;;;;;1.33;1.33;;;;;-147.17;100.00;59696.56;4997267;28;51609;-63
2022/06/29 06:26:14;;;;;;;;;2.00;2.00;;;;;-147.17;100.00;59696.56;4997834;28;51109;-63
2022/06/29 06:28:40;;;;;;;;;3.00;2.00;;;;;-147.17;100.00;59696.56;4990343;28;50888;-65
2022/06/29 06:31:07;;;;;;;;;5.00;5.00;;;;;-147.17;100.00;59696.56;4990592;28;51262;-64
2022/06/29 06:33:33;;;;;;;;;6.00;5.00;;;;;-147.17;100.00;59696.56;4994587;28;51221;-65
2022/06/29 06:35:59;;;;;;;;;2.00;2.00;;;;;-147.17;100.00;59696.56;4993415;28;51740;-64
2022/06/29 06:38:24;;;;;;;;;5.33;5.00;;;;;-147.17;100.00;59696.56;4986482;28;51191;-64
2022/06/29 06:43:55;;;;;;;;;3.67;3.33;;;;;-147.17;100.00;59696.56;4966350;28;51951;-63
2022/06/29 06:46:21;;;;;;;;;4.00;4.00;;;;;-147.17;100.00;59696.56;4983277;28;52402;-64
2022/06/29 06:48:49;;;;;;;;;2.00;1.33;;;;;-147.17;100.00;59696.56;4989456;28;51162;-63
2022/06/29 06:51:14;;;;;;;;;4.33;3.00;;;;;-147.17;100.00;59696.56;4991691;28;51293;-64
2022/06/29 06:53:39;;;;;;;;;5.00;3.00;;;;;-147.17;100.00;59696.56;4990378;28;50973;-63
2022/06/29 06:56:06;;;;;;;;;2.00;2.00;;;;;-147.17;100.00;59696.56;4987949;28;51051;-63
2022/06/29 06:58:35;;;;;;;;;2.00;1.00;;;;;-147.17;100.00;59696.56;4981732;28;50970;-64
2022/06/29 07:01:00;;;;;;;;;3.00;3.00;;;;;-147.17;100.00;59696.56;4988274;28;51147;-64
2022/06/29 07:03:25;;;;;;;;;2.00;2.00;;;;;-147.17;100.00;59696.56;4990083;28;51057;-62
2022/06/29 07:05:51;;;;;;;;;3.00;3.00;;;;;-147.17;100.00;59696.56;4985492;28;51741;-64
2022/06/29 07:08:16;;;;;;;;;1.67;1.00;;;;;-147.17;100.00;59696.56;4981993;28;51139;-62
2022/06/29 07:10:42;;;;;;;;;0.67;0.00;;;;;-147.17;100.00;59696.56;4988574;28;53927;-63
2022/06/29 07:13:07;;;;;;;;;0.33;0.00;;;;;-147.17;100.00;59696.56;4990123;28;50974;-64
2022/06/29 07:15:32;;;;;;;;;2.00;1.33;;;;;-147.17;100.00;59696.56;4988313;28;52997;-63
2022/06/29 07:17:58;;;;;;;;;1.00;1.00;;;;;-147.17;100.00;59696.56;4976902;28;51086;-63
2022/06/29 07:20:28;;;;;;;;;3.00;2.67;;;;;-147.17;100.00;59696.56;4988340;28;51259;-63
2022/06/29 07:22:54;;;;;;;;;2.33;2.33;;;;;-147.17;100.00;59696.56;4989867;28;51333;-63
2022/06/29 07:25:19;;;;;;;;;2.00;2.00;;;;;-147.17;100.00;59696.56;4988422;28;51861;-63
2022/06/29 07:27:45;;;;;;;;;3.00;2.67;;;;;-147.17;100.00;59696.56;4990726;28;51032;-65
2022/06/29 07:30:11;;;;;;;;;3.67;2.33;;;;;-147.17;100.00;59696.56;4984049;28;51220;-64
2022/06/29 07:32:37;;;;;;;;;4.00;4.00;;;;;-147.17;100.00;59696.56;4977757;28;51155;-63
2022/06/29 07:35:02;;;;;;;;;2.67;2.33;;;;;-147.17;100.00;59696.56;4986059;28;53881;-63
2022/06/29 07:37:28;;;;;;;;;3.00;2.00;;;;;-147.17;100.00;59696.56;4985838;28;52114;-63
2022/06/29 07:39:53;;;;;;;;;2.00;1.00;;;;;-147.17;100.00;59696.56;4989890;28;51265;-64
2022/06/29 07:42:19;;;;;;;;;1.33;1.00;;;;;-147.17;100.00;59696.56;4991919;28;51155;-63
2022/06/29 07:44:44;;;;;;;;;1.33;1.33;;;;;-147.17;100.00;59696.56;5004828;28;51269;-63
2022/06/29 07:47:09;;;;;;;;;2.00;1.00;;;;;-147.17;100.00;59696.56;4990837;28;51078;-63
2022/06/29 07:49:35;;;;;;;;;3.33;3.33;;;;;-147.17;100.00;59696.56;4991054;28;51185;-64
2022/06/29 07:52:00;;;;;;;;;2.00;2.00;;;;;-147.17;100.00;59696.56;4993069;28;51370;-63
2022/06/29 07:54:26;;;;;;;;;4.00;4.00;;;;;-147.17;100.00;59696.56;4986254;28;52851;-64
2022/06/29 07:56:52;;;;;;;;;2.00;2.00;;;;;-147.17;100.00;59696.56;4992136;28;51015;-63
2022/06/29 07:59:18;;;;;;;;;32.00;29.50;;;;;-147.17;100.00;59696.56;4990513;28;51234;-63
2022/06/29 08:01:43;;;;;;;;;1.33;1.00;;;;;-147.17;100.00;59696.56;4990807;28;51342;-62
2022/06/29 08:04:08;;;;;;;;;3.67;3.67;;;;;-147.17;100.00;59696.56;4987609;28;51615;-63
2022/06/29 08:06:34;;;;;;;;;3.67;3.67;;;;;-147.17;100.00;59696.56;4985820;28;53137;-63
2022/06/29 08:09:02;;;;;;;;;4.00;4.00;;;;;-147.17;100.00;59696.56;4986615;28;51118;-62
2022/06/29 08:11:27;;;;;;;;;0.67;0.67;;;;;-147.17;100.00;59696.56;4990772;28;50888;-62
2022/06/29 08:13:53;;;;;;;;;2.67;2.67;;;;;-147.17;100.00;59696.56;4989496;28;51901;-62
2022/06/29 08:16:18;;;;;;;;;7.00;6.00;;;;;-147.17;100.00;59696.56;4988497;28;51166;-64
2022/06/29 08:18:44;;;;;;;;;5.00;3.33;;;;;-147.17;100.00;59696.56;4987275;28;51126;-63
2022/06/29 08:21:09;;;;;;;;;3.00;3.00;;;;;-147.17;100.00;59696.56;4992439;28;51189;-64
2022/06/29 08:23:35;;;;;;;;;1.00;1.00;;;;;-147.17;100.00;59696.56;4981034;28;51867;-63
2022/06/29 08:26:00;;;;;;;;;0.67;0.67;;;;;-147.17;100.00;59696.56;4991102;28;51175;-63
2022/06/29 08:28:29;;;;;;;;;1.33;1.33;;;;;-147.17;100.00;59696.56;4990903;28;51025;-65
2022/06/29 08:30:55;;;;;;;;;2.00;1.00;;;;;-147.17;100.00;59696.56;4991564;28;51315;-65
2022/06/29 08:33:21;;;;;;;;;1.00;1.00;;;;;-147.17;100.00;59696.56;4991503;28;51891;-63
2022/06/29 08:35:48;;;;;;;;;3.00;3.00;;;;;-147.17;100.00;59696.56;4988426;28;51063;-64
2022/06/29 08:38:13;;;;;;;;;5.00;4.00;;;;;-147.17;100.00;59696.56;4995438;28;51127;-63
2022/06/29 08:40:47;;;;;;;;;4.00;4.00;;;;;-147.17;100.00;59696.56;4988118;28;51288;-64
2022/06/29 08:43:18;;;;;;;;;4.00;3.33;;;;;-147.17;100.00;59696.56;4991236;28;52846;-62
2022/06/29 08:45:48;;;;;;;;;23.67;23.00;;;;;-147.17;100.00;59696.56;4979621;28;51267;-64
2022/06/29 08:48:15;;;;;;;;;2.33;2.00;;;;;-147.17;100.00;59696.56;4990328;28;51060;-65
2022/06/29 08:50:42;;;;;;;;;1.33;1.33;;;;;-147.17;100.00;59696.56;4994827;28;51087;-63
2022/06/29 08:53:12;;;;;;;;;1.33;0.00;;;;;-147.17;100.00;59696.56;4991241;28;51098;-63
2022/06/29 08:55:42;;;;;;;;;0.00;0.00;;;;;-147.17;100.00;59696.56;4987393;28;51063;-63
2022/06/29 08:58:09;;;;;;;;;2.00;2.00;;;;;-147.17;100.00;59696.56;4986589;28;51016;-64
2022/06/29 09:00:38;;;;;;;;;3.00;3.00;;;;;-147.17;100.00;59696.56;4988183;28;51235;-65
2022/06/29 09:03:04;;;;;;;;;3.00;3.00;;;;;-147.17;100.00;59696.56;4990004;28;52862;-63
2022/06/29 09:05:31;;;;;;;;;6.33;6.00;;;;;-147.17;100.00;59696.56;4992574;28;51142;-64
2022/06/29 09:07:56;;;;;;;;;5.67;4.00;;;;;-147.17;100.00;59696.56;4996297;28;51092;-63
2022/06/29 09:10:23;;;;;;;;;2.00;2.00;;;;;-147.17;100.00;59696.56;4991679;28;51329;-64
2022/06/29 09:12:51;;;;;;;;;3.33;2.67;;;;;-147.17;100.00;59696.56;4991486;28;52661;-63
2022/06/29 09:15:30;;;;;;;;;2.00;1.00;;;;;-147.17;100.00;59696.56;4992017;28;51020;-65
2022/06/29 09:17:56;;;;;;;;;2.00;2.00;;;;;-147.17;100.00;59696.56;4987326;28;50966;-64
2022/06/29 09:20:21;;;;;;;;;2.00;1.00;;;;;-147.17;100.00;59696.56;4993025;28;51008;-66
2022/06/29 09:22:57;;;;;;;;;1.00;0.67;;;;;-147.17;100.00;59696.56;4992693;28;52907;-63
2022/06/29 09:25:27;;;;;;;;;2.67;2.67;;;;;-147.17;100.00;59696.56;4989395;28;50986;-64
2022/06/29 09:27:56;;;;;;;;;2.33;2.00;;;;;-147.17;100.00;59696.56;4990285;28;51031;-64
2022/06/29 09:30:27;;;;;;;;;2.67;2.00;;;;;-147.17;100.00;59696.56;4991055;28;51088;-65
2022/06/29 09:33:05;;;;;;;;;3.33;2.00;;;;;-147.17;100.00;59696.56;4991528;28;52076;-64
2022/06/29 09:35:32;;;;;;;;;2.00;1.00;;;;;-147.17;100.00;59696.56;4983760;28;51317;-69
2022/06/29 09:38:27;;;;;;;;;2.00;2.00;;;;;-147.17;100.00;59696.56;4982974;28;51826;-64
2022/06/29 09:41:03;;;;;;;;;6.00;6.00;;;;;-147.17;100.00;59696.56;4977394;28;51374;-63
2022/06/29 09:43:34;;;;;;;;;4.00;4.00;;;;;-147.17;100.00;59696.56;4982748;28;52810;-64
2022/06/29 09:46:00;;;;;;;;;2.00;2.00;;;;;-147.17;100.00;59696.56;4976254;28;51792;-64
2022/06/29 09:48:28;;;;;;;;;3.00;3.00;;;;;-147.17;100.00;59696.56;4977261;28;51540;-63
2022/06/29 09:50:55;;;;;;;;;2.67;2.67;;;;;-147.17;100.00;59696.56;4979527;28;51682;-63
2022/06/29 09:53:44;;;;;;;;;3.00;3.00;;;;;-147.17;100.00;59696.56;4984422;28;52144;-64
2022/06/29 09:56:18;;;;;;;;;3.67;3.67;;;;;-147.17;100.00;59696.56;4980958;28;51199;-63
2022/06/29 09:58:48;;;;;;;;;4.00;3.00;;;;;-147.17;100.00;59696.56;4982101;28;51384;-64
2022/06/29 10:04:00;;;;;;;;;1.33;1.33;;;;;-147.17;100.00;59696.56;4980400;28;51212;-64
2022/06/29 10:06:26;;;;;;;;;4.00;3.67;;;;;-147.17;100.00;59696.56;4982121;28;52918;-63
2022/06/29 10:08:52;;;;;;;;;5.00;5.00;;;;;-147.17;100.00;59696.56;4979899;28;51223;-64
2022/06/29 10:14:45;;;;;;;;;5.00;5.00;;;;;-147.17;100.00;59696.56;4977796;28;52565;-65
2022/06/29 10:17:28;;;;;;;;;2.00;2.00;;;;;-147.17;100.00;59696.56;4990168;28;51150;-65
2022/06/29 10:20:26;;;;;;;;;3.00;3.00;;;;;-147.17;100.00;59696.56;4990266;28;51147;-67
2022/06/29 10:22:51;;;;;;;;;2.00;2.00;;;;;-147.17;100.00;59696.56;4962043;28;51193;-69
2022/06/29 10:25:17;;;;;;;;;3.00;3.00;;;;;-147.17;100.00;59696.56;4986748;28;52114;-66
2022/06/29 10:28:18;;;;;;;;;3.33;2.67;;;;;-147.17;100.00;59696.56;4990483;28;51198;-65
2022/06/29 10:30:45;;;;;;;;;2.33;2.33;;;;;-147.17;100.00;59696.56;4990182;28;51220;-66
2022/06/29 10:33:29;;;;;;;;;1.00;1.00;;;;;-147.17;100.00;59696.56;4987871;28;51380;-65
2022/06/29 10:35:57;;;;;;;;;1.00;1.00;;;;;-147.17;100.00;59696.56;4990835;28;50919;-65
2022/06/29 10:38:22;;;;;;;;;1.00;1.00;;;;;-147.17;100.00;59696.56;4990853;28;51130;-66
2022/06/29 10:43:07;;;;;;;;;3.00;3.00;;;;;-147.17;100.00;59696.56;4990527;28;51156;-66
2022/06/29 10:43:56;;;;;;;;;3.00;3.00;;;;;-147.17;100.00;59696.56;4991634;28;51105;-65
2022/06/29 10:46:22;;;;;;;;;2.67;2.00;;;;;-147.17;100.00;59696.56;4990068;28;50992;-65
2022/06/29 10:49:17;;;;;;;;;4.00;4.00;;;;;-147.17;100.00;59696.56;4991286;28;50849;-65
2022/06/29 10:51:43;;;;;;;;;2.00;2.00;;;;;-147.17;100.00;59696.56;4990293;28;51038;-65
2022/06/29 10:54:25;;;;;;;;;2.67;1.33;;;;;-147.17;100.00;59696.56;4991692;28;50851;-65
2022/06/29 10:56:51;;;;;;;;;1.00;1.00;;;;;-147.17;100.00;59696.56;4990485;28;51116;-65
2022/06/29 10:59:38;;;;;;;;;1.00;1.00;;;;;-147.17;100.00;59696.56;4990424;28;50976;-66
2022/06/29 11:02:17;;;;;;;;;2.67;2.67;;;;;-147.17;100.00;59696.56;4990873;28;51056;-66
2022/06/29 11:04:43;;;;;;;;;9.67;9.67;;;;;-147.17;100.00;59696.56;4989995;28;51155;-65
2022/06/29 11:12:49;;;;;;;;;2.33;2.33;;;;;-147.17;100.00;59696.56;4992790;28;51115;-65
2022/06/29 11:15:40;;;;;;;;;2.33;2.33;;;;;-147.17;100.00;59696.56;4994842;28;51330;-65
2022/06/29 11:18:16;;;;;;;;;5.00;4.33;;;;;-147.17;100.00;59696.56;4982202;28;51946;-65
2022/06/29 11:20:44;;;;;;;;;10.00;10.00;;;;;-147.17;100.00;59696.56;4994331;28;51010;-63
2022/06/29 11:23:12;;;;;;;;;7.00;7.00;;;;;-147.17;100.00;59696.56;4994200;28;51040;-65
2022/06/29 11:25:39;;;;;;;;;4.67;3.00;;;;;-147.17;100.00;59696.56;4994331;28;51381;-65
2022/06/29 11:28:05;;;;;;;;;3.00;3.00;;;;;-147.17;100.00;59696.56;4992516;28;51770;-64